createdAt,value
2018-10-17T00:02:22.264Z,9.10
2018-10-17T00:04:50.142Z,9.10
2018-10-17T00:07:17.924Z,9.20
2018-10-17T00:09:45.935Z,9.10
2018-10-17T00:12:13.691Z,9.10
2018-10-17T00:14:41.443Z,9.10
2018-10-17T00:17:09.552Z,9.10
2018-10-17T00:19:37.825Z,9.00
2018-10-17T00:22:06.096Z,9.00
2018-10-17T00:24:34.079Z,9.00
2018-10-17T00:27:01.871Z,9.00
2018-10-17T00:29:29.591Z,9.00
2018-10-17T00:31:57.376Z,9.00
2018-10-17T00:34:25.168Z,9.00
2018-10-17T00:36:53.057Z,8.90
2018-10-17T00:39:20.801Z,8.90
2018-10-17T00:41:48.571Z,8.90
2018-10-17T00:44:16.326Z,8.90
2018-10-17T00:46:44.091Z,8.80
2018-10-17T00:49:11.906Z,8.80
2018-10-17T00:51:39.486Z,8.80
2018-10-17T00:54:07.223Z,8.70
2018-10-17T00:56:34.914Z,8.70
2018-10-17T00:59:07.142Z,8.70
2018-10-17T01:01:35.131Z,8.60
2018-10-17T01:04:03.170Z,8.60
2018-10-17T01:06:31.847Z,8.60
2018-10-17T01:08:59.960Z,8.60
2018-10-17T01:11:28.107Z,8.50
2018-10-17T01:13:55.831Z,8.50
2018-10-17T01:16:23.623Z,8.50
2018-10-17T01:18:51.392Z,8.50
2018-10-17T01:21:19.179Z,8.50
2018-10-17T01:23:46.983Z,8.50
2018-10-17T01:26:14.795Z,8.60
2018-10-17T01:28:42.666Z,8.60
2018-10-17T01:31:10.490Z,8.60
2018-10-17T01:33:38.264Z,8.60
2018-10-17T01:36:06.011Z,8.60
2018-10-17T01:38:33.795Z,8.50
2018-10-17T01:41:01.687Z,8.50
2018-10-17T01:43:29.607Z,8.50
2018-10-17T01:45:58.011Z,8.40
2018-10-17T01:48:25.965Z,8.40
2018-10-17T01:50:53.651Z,8.30
2018-10-17T01:53:21.439Z,8.30
2018-10-17T01:55:49.207Z,8.30
2018-10-17T01:58:16.959Z,8.30
2018-10-17T02:00:44.722Z,8.20
2018-10-17T02:03:12.463Z,8.20
2018-10-17T02:05:40.242Z,8.20
2018-10-17T02:08:08.055Z,8.10
2018-10-17T02:10:35.791Z,8.10
2018-10-17T02:13:03.758Z,8.00
2018-10-17T02:15:31.405Z,8.00
2018-10-17T02:17:59.127Z,8.00
2018-10-17T02:20:26.955Z,8.00
2018-10-17T02:22:54.769Z,7.90
2018-10-17T02:25:22.575Z,7.90
2018-10-17T02:27:50.436Z,7.90
2018-10-17T02:30:18.199Z,7.90
2018-10-17T02:32:46.003Z,7.80
2018-10-17T02:35:15.008Z,7.80
2018-10-17T02:37:42.969Z,7.80
2018-10-17T02:40:11.030Z,7.80
2018-10-17T02:42:38.899Z,7.90
2018-10-17T02:45:08.911Z,7.90
2018-10-17T02:47:36.799Z,7.90
2018-10-17T02:50:07.483Z,7.90
2018-10-17T02:52:37.068Z,7.90
2018-10-17T02:55:05.199Z,7.90
2018-10-17T02:57:33.221Z,7.90
2018-10-17T03:00:01.455Z,7.90
2018-10-17T03:02:29.442Z,7.80
2018-10-17T03:04:57.404Z,7.80
2018-10-17T03:07:25.194Z,7.80
2018-10-17T03:09:53.049Z,7.80
2018-10-17T03:12:20.783Z,7.80
2018-10-17T03:14:48.763Z,7.80
2018-10-17T03:17:16.797Z,7.70
2018-10-17T03:19:44.724Z,7.70
2018-10-17T03:22:12.568Z,7.70
2018-10-17T03:24:40.421Z,7.70
2018-10-17T03:27:08.351Z,7.70
2018-10-17T03:29:36.142Z,7.60
2018-10-17T03:32:04.323Z,7.60
2018-10-17T03:34:32.103Z,7.60
2018-10-17T03:36:59.963Z,7.60
2018-10-17T03:39:27.723Z,7.60
2018-10-17T03:41:55.536Z,7.60
2018-10-17T03:44:23.359Z,7.60
2018-10-17T03:46:51.114Z,7.70
2018-10-17T03:49:18.934Z,7.80
2018-10-17T03:51:46.643Z,7.90
2018-10-17T03:54:14.424Z,8.20
2018-10-17T03:56:42.237Z,8.30
2018-10-17T03:59:10.134Z,8.50
2018-10-17T04:01:37.799Z,8.70
2018-10-17T04:04:05.619Z,8.80
2018-10-17T04:06:33.427Z,8.80
2018-10-17T04:09:01.152Z,9.00
2018-10-17T04:11:28.855Z,9.00
2018-10-17T04:13:56.760Z,9.10
2018-10-17T04:16:24.632Z,9.20
2018-10-17T04:18:52.524Z,9.30
2018-10-17T04:21:20.261Z,9.20
2018-10-17T04:23:48.124Z,9.20
2018-10-17T04:26:15.909Z,9.20
2018-10-17T04:28:43.700Z,9.20
2018-10-17T04:31:11.571Z,9.20
2018-10-17T04:33:39.299Z,9.20
2018-10-17T04:36:07.184Z,9.20
2018-10-17T04:38:35.058Z,9.20
2018-10-17T04:41:03.025Z,9.20
2018-10-17T04:43:30.848Z,9.10
2018-10-17T04:45:58.676Z,9.00
2018-10-17T04:48:26.539Z,8.80
2018-10-17T04:50:54.277Z,8.70
2018-10-17T04:53:22.037Z,8.60
2018-10-17T04:55:49.788Z,8.50
2018-10-17T04:58:17.562Z,8.40
2018-10-17T05:00:45.283Z,8.30
2018-10-17T05:03:13.128Z,8.20
2018-10-17T05:05:41.022Z,8.10
2018-10-17T05:08:08.828Z,8.00
2018-10-17T05:10:36.587Z,7.90
2018-10-17T05:13:04.524Z,7.80
2018-10-17T05:15:32.243Z,7.80
2018-10-17T05:18:00.084Z,7.80
2018-10-17T05:20:27.964Z,7.70
2018-10-17T05:22:55.777Z,7.70
2018-10-17T05:25:23.437Z,7.60
2018-10-17T05:27:51.327Z,7.60
2018-10-17T05:30:19.092Z,7.60
2018-10-17T05:32:46.919Z,7.50
2018-10-17T05:35:14.732Z,7.60
2018-10-17T05:37:42.498Z,7.50
2018-10-17T05:40:10.272Z,7.50
2018-10-17T05:42:38.100Z,7.50
2018-10-17T05:45:07.419Z,7.50
2018-10-17T05:47:35.173Z,7.50
2018-10-17T05:50:02.984Z,7.50
2018-10-17T05:52:30.762Z,7.50
2018-10-17T05:54:58.581Z,7.50
2018-10-17T05:57:26.363Z,7.50
2018-10-17T05:59:54.161Z,7.50
2018-10-17T06:02:24.399Z,7.60
2018-10-17T06:04:52.522Z,7.60
2018-10-17T06:07:20.320Z,7.60
2018-10-17T06:09:48.154Z,7.70
2018-10-17T06:12:16.246Z,7.70
2018-10-17T06:14:44.128Z,7.70
2018-10-17T06:17:11.935Z,7.80
2018-10-17T06:19:39.647Z,7.80
2018-10-17T06:22:07.436Z,7.90
2018-10-17T06:24:35.253Z,7.90
2018-10-17T06:27:03.131Z,8.00
2018-10-17T06:29:31.064Z,8.10
2018-10-17T06:31:58.872Z,8.20
2018-10-17T06:34:26.751Z,8.20
2018-10-17T06:36:54.538Z,8.30
2018-10-17T06:39:22.424Z,8.30
2018-10-17T06:41:50.132Z,8.40
2018-10-17T06:44:17.910Z,8.50
2018-10-17T06:46:45.714Z,8.60
2018-10-17T06:49:13.674Z,8.70
2018-10-17T06:51:41.399Z,8.80
2018-10-17T06:56:44.502Z,9.20
2018-10-17T06:59:12.328Z,9.40
2018-10-17T07:01:40.149Z,9.60
2018-10-17T07:04:07.836Z,9.70
2018-10-17T07:06:35.626Z,9.90
2018-10-17T07:09:05.539Z,10.00
2018-10-17T07:11:33.244Z,10.20
2018-10-17T07:14:01.015Z,10.30
2018-10-17T07:16:28.751Z,10.60
2018-10-17T07:18:56.579Z,10.80
2018-10-17T07:21:24.317Z,11.00
2018-10-17T07:23:52.284Z,11.20
2018-10-17T07:26:20.036Z,11.40
2018-10-17T07:28:47.877Z,11.60
2018-10-17T07:31:15.597Z,11.80
2018-10-17T07:33:43.316Z,11.90
2018-10-17T07:36:11.203Z,12.10
2018-10-17T07:38:38.960Z,12.20
2018-10-17T07:41:07.543Z,12.30
2018-10-17T07:43:35.350Z,12.40
2018-10-17T07:46:03.195Z,12.50
2018-10-17T07:48:31.010Z,12.60
2018-10-17T07:50:58.799Z,12.70
2018-10-17T07:53:26.627Z,12.80
2018-10-17T07:55:54.403Z,12.90
2018-10-17T07:58:22.177Z,13.00
2018-10-17T08:00:49.962Z,13.10
2018-10-17T08:03:17.703Z,13.20
2018-10-17T08:05:45.464Z,13.30
2018-10-17T08:08:13.331Z,13.50
2018-10-17T08:10:41.047Z,13.60
2018-10-17T08:13:08.760Z,13.70
2018-10-17T08:15:36.519Z,13.80
2018-10-17T08:18:04.541Z,14.00
2018-10-17T08:20:32.243Z,14.20
2018-10-17T08:23:00.033Z,14.30
2018-10-17T08:25:27.817Z,14.40
2018-10-17T08:27:55.631Z,14.50
2018-10-17T08:30:23.468Z,14.60
2018-10-17T08:32:51.287Z,14.80
2018-10-17T08:35:19.122Z,14.90
2018-10-17T08:37:47.306Z,15.00
2018-10-17T08:40:14.724Z,15.10
2018-10-17T08:42:42.421Z,15.30
2018-10-17T08:45:10.445Z,15.40
2018-10-17T08:47:38.147Z,15.50
2018-10-17T08:50:06.038Z,15.70
2018-10-17T08:52:33.759Z,15.80
2018-10-17T08:55:01.564Z,16.00
2018-10-17T08:57:29.387Z,16.10
2018-10-17T08:59:57.235Z,16.30
2018-10-17T09:02:24.971Z,16.40
2018-10-17T09:04:52.749Z,16.60
2018-10-17T09:07:20.583Z,16.70
2018-10-17T09:09:48.427Z,16.90
2018-10-17T09:12:16.289Z,17.00
2018-10-17T09:14:43.990Z,17.20
2018-10-17T09:17:11.849Z,17.30
2018-10-17T09:19:39.894Z,17.50
2018-10-17T09:22:07.747Z,17.60
2018-10-17T09:24:35.359Z,17.80
2018-10-17T09:27:03.232Z,18.00
2018-10-17T09:29:30.976Z,18.20
2018-10-17T09:31:58.804Z,18.50
2018-10-17T09:34:26.711Z,18.80
2018-10-17T09:36:54.599Z,19.00
2018-10-17T09:39:22.423Z,19.30
2018-10-17T09:41:50.200Z,19.50
2018-10-17T09:44:18.032Z,19.70
2018-10-17T09:46:45.849Z,20.00
2018-10-17T09:49:13.615Z,20.30
2018-10-17T09:51:41.463Z,20.50
2018-10-17T09:54:09.307Z,20.80
2018-10-17T09:56:37.040Z,21.00
2018-10-17T09:59:04.829Z,21.20
2018-10-17T10:01:38.116Z,21.40
2018-10-17T10:04:06.870Z,21.60
2018-10-17T10:06:34.583Z,21.90
2018-10-17T10:09:03.661Z,22.20
2018-10-17T10:11:31.450Z,22.40
2018-10-17T10:13:59.301Z,22.70
2018-10-17T10:16:27.155Z,22.90
2018-10-17T10:18:54.970Z,23.10
2018-10-17T10:21:22.767Z,23.20
2018-10-17T10:23:50.565Z,23.30
2018-10-17T10:26:18.334Z,23.50
2018-10-17T10:28:46.055Z,23.60
2018-10-17T10:31:13.841Z,23.70
2018-10-17T10:33:41.673Z,23.90
2018-10-17T10:36:09.443Z,24.00
2018-10-17T10:38:37.242Z,24.20
2018-10-17T10:41:05.669Z,24.30
2018-10-17T10:43:33.445Z,24.40
2018-10-17T10:46:01.221Z,24.50
2018-10-17T10:48:28.999Z,24.60
2018-10-17T10:50:56.893Z,24.60
2018-10-17T10:53:24.638Z,24.70
2018-10-17T10:55:52.422Z,24.60
2018-10-17T10:58:20.288Z,24.50
2018-10-17T11:00:47.875Z,24.60
2018-10-17T11:03:15.704Z,24.70
2018-10-17T11:05:43.604Z,24.80
2018-10-17T11:08:11.337Z,24.90
2018-10-17T11:10:39.154Z,25.00
2018-10-17T11:13:07.239Z,25.00
2018-10-17T11:15:35.003Z,25.10
2018-10-17T11:18:02.852Z,25.20
2018-10-17T11:20:30.635Z,25.20
2018-10-17T11:22:58.488Z,25.30
2018-10-17T11:25:26.296Z,25.40
2018-10-17T11:27:54.161Z,25.50
2018-10-17T11:30:21.984Z,25.50
2018-10-17T11:32:49.737Z,25.60
2018-10-17T11:35:17.618Z,25.60
2018-10-17T11:37:45.403Z,25.70
2018-10-17T11:40:13.167Z,25.80
2018-10-17T11:42:40.984Z,25.80
2018-10-17T11:45:08.896Z,25.90
2018-10-17T11:47:36.675Z,26.10
2018-10-17T11:50:06.830Z,26.20
2018-10-17T11:52:34.589Z,26.20
2018-10-17T11:55:02.356Z,26.30
2018-10-17T11:57:30.099Z,26.30
2018-10-17T11:59:57.938Z,26.30
2018-10-17T12:02:25.954Z,26.30
2018-10-17T12:04:54.089Z,26.20
2018-10-17T12:07:21.635Z,26.00
2018-10-17T12:09:49.466Z,26.00
2018-10-17T12:12:17.312Z,26.00
2018-10-17T12:14:45.044Z,26.20
2018-10-17T12:17:12.778Z,26.20
2018-10-17T12:19:40.627Z,26.20
2018-10-17T12:22:08.416Z,26.10
2018-10-17T12:24:36.220Z,26.10
2018-10-17T12:27:04.207Z,26.10
2018-10-17T12:29:31.978Z,26.00
2018-10-17T12:31:59.828Z,25.90
2018-10-17T12:34:27.660Z,25.80
2018-10-17T12:36:55.523Z,25.80
2018-10-17T12:39:23.364Z,25.80
2018-10-17T12:41:51.041Z,25.70
2018-10-17T12:44:18.903Z,25.60
2018-10-17T12:46:46.622Z,25.50
2018-10-17T12:49:14.422Z,25.40
2018-10-17T12:51:42.185Z,25.30
2018-10-17T12:54:10.036Z,25.20
2018-10-17T12:56:37.856Z,25.10
2018-10-17T12:59:06.019Z,25.00
2018-10-17T13:01:33.836Z,25.00
2018-10-17T13:04:01.576Z,25.00
2018-10-17T13:06:29.359Z,24.90
2018-10-17T13:08:57.135Z,24.80
2018-10-17T13:11:24.970Z,24.70
2018-10-17T13:13:52.724Z,24.70
2018-10-17T13:16:20.560Z,24.80
2018-10-17T13:18:48.359Z,24.80
2018-10-17T13:21:16.119Z,24.90
2018-10-17T13:23:43.935Z,25.00
2018-10-17T13:26:11.718Z,25.00
2018-10-17T13:28:39.499Z,25.10
2018-10-17T13:31:07.297Z,25.10
2018-10-17T13:33:35.007Z,25.20
2018-10-17T13:36:02.862Z,25.20
2018-10-17T13:38:30.576Z,25.30
2018-10-17T13:40:58.377Z,25.30
2018-10-17T13:43:26.228Z,25.30
2018-10-17T13:45:54.086Z,25.30
2018-10-17T13:48:21.844Z,25.30
2018-10-17T13:50:49.626Z,25.30
2018-10-17T13:53:17.611Z,25.30
2018-10-17T13:55:45.263Z,25.30
2018-10-17T13:58:13.089Z,25.30
2018-10-17T14:00:40.856Z,25.30
2018-10-17T14:03:08.659Z,25.20
2018-10-17T14:05:36.431Z,25.20
2018-10-17T14:08:04.229Z,25.20
2018-10-17T14:10:32.000Z,25.20
2018-10-17T14:12:59.799Z,25.10
2018-10-17T14:15:27.638Z,25.10
2018-10-17T14:17:55.521Z,25.00
2018-10-17T14:20:23.339Z,24.90
2018-10-17T14:22:51.116Z,24.80
2018-10-17T14:25:18.832Z,24.70
2018-10-17T14:27:46.662Z,24.60
2018-10-17T14:30:14.515Z,24.50
2018-10-17T14:32:42.239Z,24.50
2018-10-17T14:35:11.347Z,24.30
2018-10-17T14:37:39.067Z,24.20
2018-10-17T14:40:06.979Z,24.10
2018-10-17T14:42:34.694Z,23.90
2018-10-17T14:45:02.606Z,23.80
2018-10-17T14:47:30.400Z,23.50
2018-10-17T14:49:58.183Z,23.30
2018-10-17T14:52:26.021Z,23.10
2018-10-17T14:54:53.892Z,22.80
2018-10-17T14:57:21.728Z,22.60
2018-10-17T14:59:49.576Z,22.40
2018-10-17T15:02:17.407Z,22.20
2018-10-17T15:04:45.175Z,22.00
2018-10-17T15:07:13.052Z,21.80
2018-10-17T15:09:40.873Z,21.70
2018-10-17T15:12:08.860Z,21.50
2018-10-17T15:14:36.563Z,21.40
2018-10-17T15:17:04.575Z,21.20
2018-10-17T15:19:32.126Z,21.00
2018-10-17T15:21:59.647Z,20.90
2018-10-17T15:24:27.259Z,20.70
2018-10-17T15:26:54.788Z,20.50
2018-10-17T15:29:22.258Z,20.30
2018-10-17T15:31:49.816Z,20.20
2018-10-17T15:34:17.302Z,19.90
2018-10-17T15:36:44.834Z,19.70
2018-10-17T15:39:12.401Z,19.50
2018-10-17T15:41:39.830Z,19.30
2018-10-17T15:44:07.934Z,19.10
2018-10-17T15:46:35.425Z,19.00
2018-10-17T15:49:02.919Z,18.80
2018-10-17T15:51:30.430Z,18.60
2018-10-17T15:53:58.002Z,18.40
2018-10-17T15:56:25.458Z,18.20
2018-10-17T15:58:52.963Z,18.10
2018-10-17T16:01:20.445Z,17.90
2018-10-17T16:03:47.942Z,17.70
2018-10-17T16:06:15.502Z,17.60
2018-10-17T16:08:42.958Z,17.40
2018-10-17T16:11:10.451Z,17.20
2018-10-17T16:13:37.950Z,17.10
2018-10-17T16:16:05.466Z,17.00
2018-10-17T16:18:32.954Z,16.90
2018-10-17T16:21:00.457Z,16.80
2018-10-17T16:23:27.950Z,16.70
2018-10-17T16:25:55.471Z,16.50
2018-10-17T16:28:22.982Z,16.40
2018-10-17T16:30:50.587Z,16.20
2018-10-17T16:33:17.997Z,16.10
2018-10-17T16:35:45.498Z,15.90
2018-10-17T16:38:13.077Z,15.80
2018-10-17T16:40:40.504Z,15.60
2018-10-17T16:43:08.011Z,15.50
2018-10-17T16:45:35.518Z,15.30
2018-10-17T16:48:03.396Z,15.20
2018-10-17T16:50:30.967Z,15.10
2018-10-17T16:52:58.365Z,15.00
2018-10-17T16:55:25.873Z,14.90
2018-10-17T16:57:53.424Z,14.80
2018-10-17T17:00:20.898Z,14.70
2018-10-17T17:02:48.405Z,14.60
2018-10-17T17:05:15.905Z,14.50
2018-10-17T17:07:43.409Z,14.50
2018-10-17T17:10:12.122Z,14.50
2018-10-17T17:12:39.794Z,14.40
2018-10-17T17:15:07.349Z,14.40
2018-10-17T17:17:34.847Z,14.30
2018-10-17T17:20:02.386Z,14.30
2018-10-17T17:22:29.920Z,14.30
2018-10-17T17:24:57.423Z,14.20
2018-10-17T17:27:24.954Z,14.20
2018-10-17T17:29:52.548Z,14.10
2018-10-17T17:32:19.994Z,14.00
2018-10-17T17:34:47.742Z,14.00
2018-10-17T17:37:15.248Z,13.90
2018-10-17T17:39:42.762Z,13.80
2018-10-17T17:42:10.334Z,13.70
2018-10-17T17:44:37.901Z,13.70
2018-10-17T17:47:06.143Z,13.60
2018-10-17T17:49:33.831Z,13.60
2018-10-17T17:52:01.349Z,13.50
2018-10-17T17:54:28.825Z,13.50
2018-10-17T17:56:56.332Z,13.60
2018-10-17T17:59:23.846Z,13.50
2018-10-17T18:01:51.333Z,13.50
2018-10-17T18:04:18.905Z,13.50
2018-10-17T18:06:46.354Z,13.50
2018-10-17T18:09:13.857Z,13.50
2018-10-17T18:11:41.341Z,13.40
2018-10-17T18:14:08.856Z,13.40
2018-10-17T18:16:36.363Z,13.30
2018-10-17T18:19:03.897Z,13.30
2018-10-17T18:21:31.389Z,13.20
2018-10-17T18:23:58.889Z,13.20
2018-10-17T18:26:26.374Z,13.20
2018-10-17T18:28:53.887Z,13.30
2018-10-17T18:31:21.382Z,13.20
2018-10-17T18:33:48.937Z,13.20
2018-10-17T18:36:16.398Z,13.10
2018-10-17T18:38:43.966Z,13.00
2018-10-17T18:41:11.584Z,12.90
2018-10-17T18:43:39.081Z,12.90
2018-10-17T18:46:06.583Z,12.80
2018-10-17T18:48:34.071Z,12.70
2018-10-17T18:51:01.621Z,12.60
2018-10-17T18:53:29.070Z,12.50
2018-10-17T18:55:56.609Z,12.40
2018-10-17T18:58:24.070Z,12.40
2018-10-17T19:00:51.564Z,12.40
2018-10-17T19:03:19.082Z,12.40
2018-10-17T19:05:46.565Z,12.40
2018-10-17T19:08:20.118Z,12.30
2018-10-17T19:10:55.576Z,12.20
2018-10-17T19:13:23.082Z,12.10
2018-10-17T19:15:50.599Z,12.10
2018-10-17T19:18:18.094Z,12.10
2018-10-17T19:20:45.598Z,12.10
2018-10-17T19:23:13.107Z,12.00
2018-10-17T19:25:40.614Z,11.90
2018-10-17T19:28:08.133Z,11.90
2018-10-17T19:30:35.626Z,11.90
2018-10-17T19:33:03.161Z,11.90
2018-10-17T19:35:30.689Z,11.90
2018-10-17T19:37:58.190Z,11.90
2018-10-17T19:40:25.710Z,11.90
2018-10-17T19:42:53.215Z,11.90
2018-10-17T19:45:20.795Z,11.90
2018-10-17T19:47:48.408Z,11.90
2018-10-17T19:50:15.867Z,11.90
2018-10-17T19:52:43.374Z,11.90
2018-10-17T19:55:10.918Z,11.90
2018-10-17T19:57:38.620Z,11.90
2018-10-17T20:00:09.815Z,11.80
2018-10-17T20:02:37.366Z,11.80
2018-10-17T20:05:04.894Z,11.80
2018-10-17T20:07:32.436Z,11.80
2018-10-17T20:09:59.970Z,11.80
2018-10-17T20:12:27.495Z,11.80
2018-10-17T20:15:07.555Z,11.70
2018-10-17T20:17:40.722Z,11.70
2018-10-17T20:20:27.478Z,11.70
2018-10-17T20:22:54.977Z,11.70
2018-10-17T20:25:22.502Z,11.60
2018-10-17T20:27:50.030Z,11.60
2018-10-17T20:30:17.551Z,11.60
2018-10-17T20:36:17.959Z,11.60
2018-10-17T20:38:45.497Z,11.50
2018-10-17T20:41:13.042Z,11.40
2018-10-17T20:43:44.423Z,11.40
2018-10-17T20:46:14.006Z,11.30
2018-10-17T20:48:41.516Z,11.20
2018-10-17T20:51:09.040Z,11.20
2018-10-17T20:53:36.555Z,11.10
2018-10-17T20:56:04.127Z,11.10
2018-10-17T20:58:31.610Z,11.00
2018-10-17T21:01:06.810Z,11.00
2018-10-17T21:03:34.327Z,11.00
2018-10-17T21:06:01.854Z,11.00
2018-10-17T21:08:29.358Z,11.00
2018-10-17T21:10:56.867Z,10.90
2018-10-17T21:13:27.711Z,10.90
2018-10-17T21:15:55.209Z,10.80
2018-10-17T21:18:22.761Z,10.80
2018-10-17T21:20:50.226Z,10.80
2018-10-17T21:23:17.726Z,10.80
2018-10-17T21:25:45.258Z,10.70
2018-10-17T21:28:12.861Z,10.70
2018-10-17T21:30:40.374Z,10.60
2018-10-17T21:33:07.903Z,10.60
2018-10-17T21:35:35.411Z,10.50
2018-10-17T21:38:02.909Z,10.50
2018-10-17T21:40:30.393Z,10.40
2018-10-17T21:42:57.898Z,10.40
2018-10-17T21:45:25.571Z,10.40
2018-10-17T21:47:53.134Z,10.40
2018-10-17T21:50:20.650Z,10.40
2018-10-17T21:53:14.717Z,10.30
2018-10-17T21:55:42.243Z,10.30
2018-10-17T21:58:09.742Z,10.30
2018-10-17T22:00:37.810Z,10.30
2018-10-17T22:03:05.325Z,10.30
2018-10-17T22:05:32.846Z,10.30
2018-10-17T22:08:00.367Z,10.30
2018-10-17T22:10:27.876Z,10.30
2018-10-17T22:12:55.393Z,10.30
2018-10-17T22:15:22.922Z,10.20
2018-10-17T22:17:50.425Z,10.20
2018-10-17T22:20:18.033Z,10.20
2018-10-17T22:22:45.466Z,10.10
2018-10-17T22:25:12.977Z,10.10
2018-10-17T22:27:40.496Z,10.10
2018-10-17T22:30:08.156Z,10.10
2018-10-17T22:32:35.542Z,10.00
2018-10-17T22:35:03.074Z,10.00
2018-10-17T22:37:30.578Z,9.90
2018-10-17T22:39:58.095Z,9.90
2018-10-17T22:42:25.620Z,9.90
2018-10-17T22:44:53.161Z,9.80
2018-10-17T22:47:20.670Z,9.80
2018-10-17T22:49:48.196Z,9.80
2018-10-17T22:52:15.714Z,9.80
2018-10-17T22:54:43.251Z,9.70
2018-10-17T22:57:10.754Z,9.70
2018-10-17T22:59:38.263Z,9.70
2018-10-17T23:02:05.850Z,9.60
2018-10-17T23:04:33.346Z,9.60
2018-10-17T23:07:00.858Z,9.60
2018-10-17T23:09:28.378Z,9.60
2018-10-17T23:11:55.898Z,9.50
2018-10-17T23:14:23.414Z,9.50
2018-10-17T23:16:50.948Z,9.50
2018-10-17T23:19:18.454Z,9.40
2018-10-17T23:21:45.970Z,9.40
2018-10-17T23:24:13.479Z,9.30
2018-10-17T23:26:40.986Z,9.30
2018-10-17T23:29:08.503Z,9.20
2018-10-17T23:31:36.038Z,9.20
2018-10-17T23:34:03.617Z,9.20
2018-10-17T23:36:31.114Z,9.20
2018-10-17T23:38:58.622Z,9.20
2018-10-17T23:41:26.149Z,9.20
2018-10-17T23:43:53.676Z,9.20
2018-10-17T23:46:21.175Z,9.30
2018-10-17T23:48:48.715Z,9.30
2018-10-17T23:51:16.218Z,9.20
2018-10-17T23:53:43.706Z,9.20
2018-10-17T23:56:11.251Z,9.20
2018-10-17T23:58:38.693Z,9.10
